Arad, Romania

1:37 AM EET on January 25, 2017 (GMT +0200)
Arad | | Change Station

Elev 351 ft 46.18 °N, 21.26 °E | Updated 7 minutes ago

Fog
Fog
19 °F
Feels Like 14 °F
N
4
Wind Variable Wind from WNW

Today
High -- | Low -- °F
--% Chance of Precip.
Yesterday
High -- | Low -- °F
Precip. -- in
Pressure 30.33 in
Visibility 0.3 miles
Clouds Overcast 100 ft
Windchill 14 °F
Dew Point 19 °F
Humidity 100%
Rainfall 0.00 in
Snow Depth Not available.
8:04 AM 5:29 PM
Waning Crescent, 9% visible
METAR LRAR 242330Z 30003KT 260V360 0500 R09/0600 R27/0650V1000N FZFG OVC001 M07/M07 Q1027
Pressure 30.33 in
Visibility 0.3 miles
Clouds Overcast 100 ft
Windchill 14 °F
Dew Point 19 °F
Humidity 100%
Rainfall 0.00 in
Snow Depth Not available.
8:04 AM 5:29 PM
Waning Crescent, 9% visible
METAR LRAR 242330Z 30003KT 260V360 0500 R09/0600 R27/0650V1000N FZFG OVC001 M07/M07 Q1027

Get Your Daily Forecast Email!

Thanks for signing up!

Be on the lookout for a verification email in your inbox.

You'll start receiving the daily forecast at 8 AM.

×

10-Day Weather Forecast

×

Almanac

Astronomy

Jan. 25, 2017 Rise Set
Actual Time
Civil Twilight
Nautical Twilight
Astronomical Twilight
Moon
Length of Visible Light
Length of Day
Tomorrow will be .
, % of the Moon is Illuminated

Today's Extremes

Country Highs Country Lows

Community

WunderPhotos

Upload Photos

1,962,540 photos uploaded!

WunderBlog® & News

Nearby

Air Quality

  Air Quality AQ Index Pollutant
Not available.

Snow Depth

Station Depth Elevation

Earthquake Activity

City Distance Mag. Time & Date
Minimum magnitude displayed is 2.5.

Coastal Water Temperatures

Place Temperature

Stations

Nearby Weather Stations

Station Location Temp. Windchill Dew Point Humidity Wind Precip. Elev Updated Type